createdAt,value
2019-06-01T00:00:10.719Z,17.50
2019-06-01T00:01:02.130Z,17.90
2019-06-01T00:02:02.115Z,18.00
2019-06-01T00:03:02.114Z,18.70
2019-06-01T00:04:02.095Z,18.20
2019-06-01T00:05:02.073Z,18.20
2019-06-01T00:06:02.055Z,18.10
2019-06-01T00:07:02.038Z,19.40
2019-06-01T00:08:02.024Z,19.20
2019-06-01T00:09:02.020Z,19.70
2019-06-01T00:10:01.995Z,19.10
2019-06-01T00:11:01.992Z,19.10
2019-06-01T00:12:01.973Z,19.90
2019-06-01T00:13:01.959Z,20.10
2019-06-01T00:14:01.942Z,21.00
2019-06-01T00:15:01.969Z,21.10
2019-06-01T00:16:01.911Z,20.50
2019-06-01T00:17:01.896Z,20.40
2019-06-01T00:18:01.884Z,21.10
2019-06-01T00:19:01.874Z,20.10
2019-06-01T00:20:01.865Z,21.20
2019-06-01T00:21:01.863Z,20.60
2019-06-01T00:22:01.831Z,20.30
2019-06-01T00:23:01.811Z,21.00
2019-06-01T00:24:01.805Z,19.50
2019-06-01T00:25:01.783Z,19.80
2019-06-01T00:26:01.769Z,20.40
2019-06-01T00:27:01.758Z,19.40
2019-06-01T00:28:01.748Z,20.10
2019-06-01T00:29:01.727Z,21.00
2019-06-01T00:30:01.712Z,21.00
2019-06-01T00:31:01.698Z,20.30
2019-06-01T00:32:01.686Z,21.00
2019-06-01T00:33:01.671Z,21.20
2019-06-01T00:34:01.655Z,21.50
2019-06-01T00:35:01.671Z,20.90
2019-06-01T00:36:01.624Z,20.40
2019-06-01T00:37:01.616Z,20.80
2019-06-01T00:38:01.597Z,21.20
2019-06-01T00:39:01.592Z,20.70
2019-06-01T00:40:01.574Z,19.70
2019-06-01T00:41:01.555Z,19.90
2019-06-01T00:42:01.539Z,21.00
2019-06-01T00:43:01.527Z,20.20
2019-06-01T00:44:01.513Z,20.90
2019-06-01T00:45:01.586Z,20.00
2019-06-01T00:46:01.484Z,19.70
2019-06-01T00:47:01.472Z,19.20
2019-06-01T00:48:01.457Z,20.80
2019-06-01T00:49:01.438Z,19.50
2019-06-01T00:50:01.428Z,20.70
2019-06-01T00:51:01.413Z,20.80
2019-06-01T00:52:01.410Z,19.80
2019-06-01T00:53:01.386Z,20.40
2019-06-01T00:54:01.366Z,20.70
2019-06-01T00:55:01.357Z,21.40
2019-06-01T00:56:01.341Z,20.60
2019-06-01T00:57:01.326Z,21.40
2019-06-01T00:58:01.308Z,21.20
2019-06-01T00:59:01.295Z,21.90
2019-06-01T01:00:01.278Z,21.00
2019-06-01T01:01:01.264Z,20.20
2019-06-01T01:02:01.263Z,20.60
2019-06-01T01:03:01.235Z,19.70
2019-06-01T01:04:01.232Z,19.50
2019-06-01T01:05:01.207Z,19.90
2019-06-01T01:06:01.196Z,20.80
2019-06-01T01:07:01.177Z,20.90
2019-06-01T01:08:01.214Z,20.50
2019-06-01T01:09:01.150Z,20.80
2019-06-01T01:10:01.144Z,20.30
2019-06-01T01:11:01.118Z,19.50
2019-06-01T01:12:01.103Z,20.40
2019-06-01T01:13:01.088Z,19.20
2019-06-01T01:14:01.076Z,20.10
2019-06-01T01:15:01.075Z,19.50
2019-06-01T01:16:01.051Z,19.70
2019-06-01T01:17:01.029Z,20.10
2019-06-01T01:18:01.019Z,21.00
2019-06-01T01:19:01.001Z,20.50
2019-06-01T01:20:00.992Z,20.70
2019-06-01T01:21:00.977Z,20.70
2019-06-01T01:22:01.008Z,21.60
2019-06-01T01:23:00.944Z,21.10
2019-06-01T01:24:00.929Z,21.30
2019-06-01T01:25:00.914Z,21.20
2019-06-01T01:26:00.898Z,20.70
2019-06-01T01:27:00.886Z,21.50
2019-06-01T01:28:00.871Z,20.00
2019-06-01T01:29:00.856Z,20.90
2019-06-01T01:30:00.860Z,20.90
2019-06-01T01:31:12.743Z,20.80
2019-06-01T01:32:00.818Z,20.80
2019-06-01T01:33:00.799Z,21.80
2019-06-01T01:34:00.782Z,20.70
2019-06-01T01:35:00.801Z,20.90
2019-06-01T01:36:00.750Z,21.40
2019-06-01T01:37:00.738Z,20.60
2019-06-01T01:38:00.728Z,20.40
2019-06-01T01:39:00.710Z,20.80
2019-06-01T01:40:00.692Z,21.70
2019-06-01T01:41:00.681Z,22.80
2019-06-01T01:42:00.674Z,23.00
2019-06-01T01:43:00.648Z,23.40
2019-06-01T01:44:00.635Z,21.80
2019-06-01T01:45:00.617Z,22.60
2019-06-01T01:46:00.606Z,22.50
2019-06-01T01:47:00.591Z,22.60
2019-06-01T01:48:01.425Z,22.60
2019-06-01T01:49:00.562Z,21.50
2019-06-01T01:50:00.542Z,21.80
2019-06-01T01:51:00.528Z,22.50
2019-06-01T01:52:01.635Z,23.00
2019-06-01T01:53:00.497Z,22.40
2019-06-01T01:54:00.497Z,23.30
2019-06-01T01:55:00.471Z,23.00
2019-06-01T01:56:01.170Z,22.40
2019-06-01T01:57:00.437Z,22.30
2019-06-01T01:58:01.640Z,22.90
2019-06-01T01:59:00.410Z,22.50
2019-06-01T02:00:01.722Z,23.50
2019-06-01T02:01:16.274Z,22.60
2019-06-01T02:02:00.364Z,21.80
2019-06-01T02:03:00.348Z,21.30
2019-06-01T02:04:00.331Z,22.20
2019-06-01T02:05:00.316Z,21.30
2019-06-01T02:06:00.302Z,21.00
2019-06-01T02:07:00.429Z,21.10
2019-06-01T02:08:01.853Z,21.40
2019-06-01T02:09:01.862Z,20.80
2019-06-01T02:10:01.777Z,21.70
2019-06-01T02:11:01.684Z,21.10
2019-06-01T02:12:00.211Z,21.50
2019-06-01T02:13:00.195Z,19.80
2019-06-01T02:14:00.180Z,21.00
2019-06-01T02:15:00.166Z,21.20
2019-06-01T02:16:00.645Z,20.30
2019-06-01T02:17:00.337Z,19.90
2019-06-01T02:18:00.669Z,20.80
2019-06-01T02:19:00.560Z,20.00
2019-06-01T02:20:00.268Z,20.40
2019-06-01T02:21:00.502Z,21.00
2019-06-01T02:22:00.706Z,20.20
2019-06-01T02:23:01.004Z,20.70
2019-06-01T02:24:01.251Z,21.10
2019-06-01T02:25:00.013Z,21.50
2019-06-01T02:26:01.171Z,21.20
2019-06-01T02:27:01.281Z,22.30
2019-06-01T02:28:01.156Z,22.00
2019-06-01T02:28:59.953Z,22.30
2019-06-01T02:29:59.948Z,21.90
2019-06-01T02:31:00.146Z,22.70
2019-06-01T02:32:01.747Z,21.80
2019-06-01T02:33:00.195Z,21.60
2019-06-01T02:34:01.503Z,22.00
2019-06-01T02:35:00.313Z,21.50
2019-06-01T02:36:00.620Z,21.30
2019-06-01T02:37:00.323Z,21.00
2019-06-01T02:38:00.364Z,21.60
2019-06-01T02:39:01.078Z,22.80
2019-06-01T02:40:00.951Z,21.40
2019-06-01T02:41:01.161Z,20.30
2019-06-01T02:42:01.251Z,20.80
2019-06-01T02:43:01.396Z,21.90
2019-06-01T02:44:01.409Z,22.10
2019-06-01T02:45:01.153Z,22.10
2019-06-01T02:46:00.461Z,20.50
2019-06-01T02:47:01.381Z,21.60
2019-06-01T02:48:01.541Z,21.20
2019-06-01T02:48:59.845Z,20.90
2019-06-01T02:49:59.631Z,20.90
2019-06-01T02:50:59.936Z,21.00
2019-06-01T02:51:59.599Z,20.40
2019-06-01T02:52:59.583Z,20.60
2019-06-01T02:53:59.652Z,21.00
2019-06-01T02:54:59.665Z,20.80
2019-06-01T02:55:59.949Z,21.20
2019-06-01T02:57:00.211Z,20.70
2019-06-01T02:58:00.209Z,21.40
2019-06-01T02:59:00.364Z,21.60
2019-06-01T03:00:00.410Z,21.50
2019-06-01T03:01:00.562Z,20.70
2019-06-01T03:02:04.831Z,21.20
2019-06-01T03:02:59.429Z,21.60
2019-06-01T03:03:59.574Z,23.00
2019-06-01T03:04:59.402Z,22.00
2019-06-01T03:05:59.382Z,22.40
2019-06-01T03:06:59.596Z,22.70
2019-06-01T03:07:59.425Z,21.80
2019-06-01T03:08:59.819Z,22.40
2019-06-01T03:10:00.637Z,22.80
2019-06-01T03:10:59.659Z,21.70
2019-06-01T03:12:00.821Z,22.40
2019-06-01T03:13:00.124Z,22.50
2019-06-01T03:14:00.330Z,22.10
2019-06-01T03:15:00.381Z,22.60
2019-06-01T03:16:00.251Z,21.50
2019-06-01T03:16:59.763Z,22.30
2019-06-01T03:17:59.454Z,21.80
2019-06-01T03:18:59.653Z,22.30
2019-06-01T03:19:59.611Z,21.90
2019-06-01T03:20:59.538Z,22.00
2019-06-01T03:21:59.628Z,21.90
2019-06-01T03:22:59.644Z,21.70
2019-06-01T03:23:59.751Z,23.10
2019-06-01T03:24:59.789Z,21.90
2019-06-01T03:25:59.871Z,23.30
2019-06-01T03:26:59.767Z,23.10
2019-06-01T03:28:00.012Z,21.80
2019-06-01T03:29:00.065Z,22.30
2019-06-01T03:30:00.248Z,22.30
2019-06-01T03:31:00.950Z,23.20
2019-06-01T03:32:22.530Z,23.80
2019-06-01T03:32:58.964Z,22.60
2019-06-01T03:33:58.957Z,23.10
2019-06-01T03:34:58.935Z,23.10
2019-06-01T03:35:58.915Z,23.30
2019-06-01T03:36:58.900Z,23.20
2019-06-01T03:37:58.891Z,23.60
2019-06-01T03:38:59.943Z,22.70
2019-06-01T03:39:58.859Z,23.10
2019-06-01T03:40:59.902Z,23.30
2019-06-01T03:41:58.822Z,23.70
2019-06-01T03:43:00.062Z,22.20
2019-06-01T03:43:58.807Z,23.30
2019-06-01T03:44:58.776Z,23.20
2019-06-01T03:45:58.761Z,22.70
2019-06-01T03:46:58.759Z,22.80
2019-06-01T03:47:58.733Z,22.50
2019-06-01T03:48:58.712Z,23.00
2019-06-01T03:49:58.698Z,23.20
2019-06-01T03:50:58.680Z,22.50
2019-06-01T03:51:58.668Z,22.40
2019-06-01T03:52:58.657Z,23.80
2019-06-01T03:53:58.650Z,25.00
2019-06-01T03:54:58.619Z,22.90
2019-06-01T03:55:58.605Z,23.00
2019-06-01T03:56:58.589Z,22.00
2019-06-01T03:57:58.575Z,22.60
2019-06-01T03:58:58.560Z,22.60
2019-06-01T03:59:58.559Z,23.50
2019-06-01T04:00:58.527Z,22.60
2019-06-01T04:01:58.510Z,23.10
2019-06-01T04:02:58.496Z,21.60
2019-06-01T04:03:58.478Z,21.90
2019-06-01T04:04:58.466Z,22.40
2019-06-01T04:05:58.450Z,22.50
2019-06-01T04:06:58.442Z,21.80
2019-06-01T04:07:58.419Z,22.40
2019-06-01T04:08:58.403Z,22.40
2019-06-01T04:09:58.391Z,23.20
2019-06-01T04:10:58.375Z,22.70
2019-06-01T04:11:58.362Z,22.50
2019-06-01T04:12:58.344Z,23.40
2019-06-01T04:13:58.335Z,22.40
2019-06-01T04:14:58.310Z,22.70
2019-06-01T04:15:58.300Z,23.00
2019-06-01T04:16:58.285Z,24.00
2019-06-01T04:17:58.262Z,24.00
2019-06-01T04:18:58.246Z,24.90
2019-06-01T04:19:58.238Z,23.60
2019-06-01T04:20:58.220Z,23.70
2019-06-01T04:21:58.201Z,23.40
2019-06-01T04:22:58.187Z,22.70
2019-06-01T04:23:58.193Z,23.00
2019-06-01T04:24:58.154Z,22.40
2019-06-01T04:25:58.144Z,22.80
2019-06-01T04:26:58.120Z,23.80
2019-06-01T04:27:58.110Z,23.30
2019-06-01T04:28:58.094Z,22.60
2019-06-01T04:29:58.083Z,23.10
2019-06-01T04:30:58.062Z,22.90
2019-06-01T04:31:58.043Z,21.60
2019-06-01T04:32:58.040Z,22.30
2019-06-01T04:33:58.011Z,22.20
2019-06-01T04:34:57.996Z,22.30
2019-06-01T04:35:57.981Z,21.40
2019-06-01T04:36:57.970Z,20.40
2019-06-01T04:37:57.954Z,21.50
2019-06-01T04:38:57.936Z,21.20
2019-06-01T04:39:57.922Z,21.20
2019-06-01T04:40:57.924Z,21.20
2019-06-01T04:41:57.890Z,20.30
2019-06-01T04:42:57.877Z,21.60
2019-06-01T04:43:57.859Z,21.20
2019-06-01T04:44:57.844Z,21.40
2019-06-01T04:45:57.833Z,21.00
2019-06-01T04:46:57.813Z,20.70
2019-06-01T04:47:57.796Z,20.60
2019-06-01T04:48:57.783Z,19.90
2019-06-01T04:49:57.773Z,20.30
2019-06-01T04:50:57.769Z,20.20
2019-06-01T04:51:57.737Z,20.30
2019-06-01T04:52:57.719Z,20.00
2019-06-01T04:53:57.707Z,20.20
2019-06-01T04:54:57.696Z,19.30
2019-06-01T04:55:57.678Z,19.90
2019-06-01T04:56:57.661Z,20.10
2019-06-01T04:57:57.644Z,19.50
2019-06-01T04:58:57.634Z,20.10
2019-06-01T04:59:57.615Z,19.30
2019-06-01T05:00:57.613Z,19.60
2019-06-01T05:01:57.587Z,19.90
2019-06-01T05:03:05.235Z,20.90
2019-06-01T05:03:57.553Z,20.00
2019-06-01T05:04:57.540Z,21.10
2019-06-01T05:05:57.526Z,20.30
2019-06-01T05:06:57.512Z,19.80
2019-06-01T05:07:57.506Z,20.20
2019-06-01T05:08:57.486Z,20.10
2019-06-01T05:09:57.466Z,20.10
2019-06-01T05:10:57.450Z,19.40
2019-06-01T05:11:57.439Z,19.00
2019-06-01T05:12:57.425Z,19.70
2019-06-01T05:13:57.406Z,19.10
2019-06-01T05:14:57.391Z,20.30
2019-06-01T05:15:57.380Z,17.90
2019-06-01T05:16:57.367Z,18.60
2019-06-01T05:17:57.376Z,18.20
2019-06-01T05:18:57.331Z,18.90
2019-06-01T05:19:57.321Z,17.70
2019-06-01T05:20:57.303Z,18.60
2019-06-01T05:21:57.290Z,17.80
2019-06-01T05:22:57.280Z,18.80
2019-06-01T05:23:57.257Z,18.30
2019-06-01T05:24:57.246Z,19.20
2019-06-01T05:25:57.229Z,18.50
2019-06-01T05:26:57.212Z,18.70
2019-06-01T05:27:57.201Z,17.50
2019-06-01T05:28:57.198Z,18.10
2019-06-01T05:29:57.172Z,18.60
2019-06-01T05:30:57.159Z,17.80
2019-06-01T05:31:57.139Z,16.60
2019-06-01T05:32:57.131Z,18.00
2019-06-01T05:33:57.218Z,18.10
2019-06-01T05:34:57.098Z,18.10
2019-06-01T05:35:57.091Z,17.30
2019-06-01T05:36:57.072Z,17.50
2019-06-01T05:37:57.056Z,17.00
2019-06-01T05:38:57.044Z,16.70
2019-06-01T05:39:57.024Z,16.10
2019-06-01T05:40:57.009Z,16.70
2019-06-01T05:41:56.995Z,17.00
2019-06-01T05:42:56.979Z,16.40
2019-06-01T05:43:56.969Z,16.40
2019-06-01T05:44:56.953Z,16.80
2019-06-01T05:45:56.938Z,16.20
2019-06-01T05:46:56.922Z,15.70
2019-06-01T05:47:56.914Z,15.60
2019-06-01T05:48:56.898Z,15.70
2019-06-01T05:49:56.880Z,15.50
2019-06-01T05:50:56.872Z,15.60
2019-06-01T05:51:56.861Z,15.30
2019-06-01T05:52:56.838Z,14.90
2019-06-01T05:53:56.823Z,15.00
2019-06-01T05:54:56.815Z,16.20
2019-06-01T05:55:56.792Z,15.40
2019-06-01T05:56:56.785Z,15.60
2019-06-01T05:57:56.769Z,15.30
2019-06-01T05:58:56.757Z,15.50
2019-06-01T05:59:56.743Z,15.50
2019-06-01T06:00:56.730Z,15.00
2019-06-01T06:01:56.710Z,14.50
2019-06-01T06:02:56.697Z,15.00
2019-06-01T06:03:56.682Z,15.50
2019-06-01T06:04:56.669Z,14.50
2019-06-01T06:05:56.656Z,15.60
2019-06-01T06:06:56.644Z,15.30
2019-06-01T06:07:56.631Z,14.70
2019-06-01T06:08:56.619Z,15.30
2019-06-01T06:09:56.613Z,14.70
2019-06-01T06:10:56.589Z,15.20
2019-06-01T06:11:56.576Z,14.60
2019-06-01T06:12:56.557Z,15.80
2019-06-01T06:13:56.548Z,14.80
2019-06-01T06:14:56.532Z,14.40
2019-06-01T06:15:56.525Z,15.20
2019-06-01T06:16:56.511Z,14.90
2019-06-01T06:17:56.508Z,14.20
2019-06-01T06:18:56.487Z,14.80
2019-06-01T06:19:56.463Z,14.50
2019-06-01T06:20:56.456Z,15.00
2019-06-01T06:21:56.441Z,15.40
2019-06-01T06:22:56.428Z,14.40
2019-06-01T06:23:56.415Z,14.80
2019-06-01T06:24:56.408Z,14.80
2019-06-01T06:25:56.388Z,15.20
2019-06-01T06:26:56.375Z,15.20
2019-06-01T06:27:56.358Z,14.80
2019-06-01T06:28:56.394Z,14.50
2019-06-01T06:29:56.332Z,15.00
2019-06-01T06:30:56.320Z,15.10
2019-06-01T06:31:56.310Z,14.20
2019-06-01T06:32:56.307Z,13.70
2019-06-01T06:33:57.236Z,14.70
2019-06-01T06:34:56.278Z,14.40
2019-06-01T06:35:56.256Z,13.90
2019-06-01T06:36:56.246Z,13.60
2019-06-01T06:37:56.229Z,13.70
2019-06-01T06:38:56.216Z,13.70
2019-06-01T06:39:56.199Z,13.20
2019-06-01T06:40:56.195Z,13.90
2019-06-01T06:41:56.177Z,13.20
2019-06-01T06:42:56.166Z,13.50
2019-06-01T06:43:56.156Z,13.60
2019-06-01T06:44:56.156Z,12.90
2019-06-01T06:45:56.154Z,13.20
2019-06-01T06:46:56.120Z,13.30
2019-06-01T06:47:56.102Z,13.20
2019-06-01T06:48:56.086Z,12.60
2019-06-01T06:49:56.080Z,12.60
2019-06-01T06:50:56.061Z,13.10
2019-06-01T06:51:56.047Z,13.80
2019-06-01T06:52:56.047Z,12.50
2019-06-01T06:53:56.032Z,12.60
2019-06-01T06:54:56.016Z,12.40
2019-06-01T06:55:56.012Z,13.10
2019-06-01T06:56:55.993Z,13.20
2019-06-01T06:57:56.029Z,12.50
2019-06-01T06:58:55.958Z,12.70
2019-06-01T06:59:55.945Z,11.20
2019-06-01T07:00:55.952Z,11.80
2019-06-01T07:01:55.942Z,10.90
2019-06-01T07:02:55.918Z,11.40
2019-06-01T07:04:09.428Z,11.20
2019-06-01T07:04:55.898Z,11.60
2019-06-01T07:05:55.879Z,11.40
2019-06-01T07:06:55.860Z,10.90
2019-06-01T07:07:55.857Z,11.60
2019-06-01T07:08:55.841Z,11.00
2019-06-01T07:09:55.834Z,11.50
2019-06-01T07:10:55.836Z,11.20
2019-06-01T07:11:55.799Z,11.20
2019-06-01T07:12:55.792Z,10.60
2019-06-01T07:13:55.801Z,9.70
2019-06-01T07:14:55.761Z,9.60
2019-06-01T07:15:55.749Z,10.10
2019-06-01T07:16:55.749Z,9.10
2019-06-01T07:17:55.722Z,9.50
2019-06-01T07:18:55.712Z,9.50
2019-06-01T07:19:55.702Z,9.60
2019-06-01T07:20:55.704Z,9.80
2019-06-01T07:21:55.678Z,9.50
2019-06-01T07:22:55.699Z,9.50
2019-06-01T07:23:55.681Z,9.00
2019-06-01T07:24:55.643Z,9.60
2019-06-01T07:25:55.625Z,9.30
2019-06-01T07:26:55.621Z,9.90
2019-06-01T07:27:55.601Z,9.30
2019-06-01T07:28:55.604Z,9.50
2019-06-01T07:29:55.579Z,9.20
2019-06-01T07:30:55.573Z,9.50
2019-06-01T07:31:55.557Z,9.20
2019-06-01T07:32:55.545Z,8.50
2019-06-01T07:33:55.545Z,8.50
2019-06-01T07:34:55.528Z,8.80
2019-06-01T07:35:55.512Z,7.90
2019-06-01T07:36:55.505Z,8.80
2019-06-01T07:37:55.489Z,9.00
2019-06-01T07:38:55.476Z,8.40
2019-06-01T07:39:55.473Z,7.90
2019-06-01T07:40:55.451Z,8.40
2019-06-01T07:41:55.453Z,8.60
2019-06-01T07:42:55.433Z,9.20
2019-06-01T07:43:55.417Z,8.50
2019-06-01T07:44:55.406Z,8.30
2019-06-01T07:45:55.394Z,8.40
2019-06-01T07:46:55.388Z,8.00
2019-06-01T07:47:55.389Z,8.30
2019-06-01T07:48:55.364Z,8.30
2019-06-01T07:49:55.355Z,7.50
2019-06-01T07:50:55.335Z,8.00
2019-06-01T07:51:55.465Z,8.30
2019-06-01T07:52:55.323Z,8.20
2019-06-01T07:53:55.309Z,8.30
2019-06-01T07:54:55.290Z,8.30
2019-06-01T07:55:55.282Z,7.70
2019-06-01T07:56:55.268Z,7.50
2019-06-01T07:57:55.259Z,7.20
2019-06-01T07:58:55.250Z,6.80
2019-06-01T07:59:55.238Z,7.60
2019-06-01T08:00:55.231Z,6.70
2019-06-01T08:01:55.265Z,7.10
2019-06-01T08:02:55.204Z,7.00
2019-06-01T08:03:55.196Z,6.50
2019-06-01T08:04:55.205Z,6.70
2019-06-01T08:05:55.172Z,6.70
2019-06-01T08:06:55.222Z,7.00
2019-06-01T08:07:55.151Z,7.10
2019-06-01T08:08:55.149Z,7.10
2019-06-01T08:09:55.133Z,6.60
2019-06-01T08:10:55.123Z,6.40
2019-06-01T08:11:55.120Z,6.20
2019-06-01T08:12:55.108Z,6.20
2019-06-01T08:13:55.099Z,6.10
2019-06-01T08:14:55.091Z,6.20
2019-06-01T08:15:55.072Z,6.10
2019-06-01T08:16:55.058Z,6.20
2019-06-01T08:17:55.049Z,5.80
2019-06-01T08:18:55.046Z,5.20
2019-06-01T08:19:55.029Z,5.90
2019-06-01T08:20:55.031Z,6.10
2019-06-01T08:21:55.016Z,6.10
2019-06-01T08:22:55.000Z,5.40
2019-06-01T08:23:54.989Z,5.00
2019-06-01T08:24:54.981Z,5.00
2019-06-01T08:25:54.975Z,4.80
2019-06-01T08:26:54.964Z,5.60
2019-06-01T08:27:54.960Z,5.60
2019-06-01T08:28:54.948Z,5.90
2019-06-01T08:29:54.941Z,5.10
2019-06-01T08:30:54.937Z,5.50
2019-06-01T08:31:55.870Z,5.80
2019-06-01T08:32:54.904Z,5.30
2019-06-01T08:33:54.903Z,5.00
2019-06-01T08:35:07.998Z,5.50
2019-06-01T08:35:54.890Z,5.20
2019-06-01T08:36:54.871Z,5.10
2019-06-01T08:37:54.859Z,5.20
2019-06-01T08:38:54.850Z,5.00
2019-06-01T08:39:58.901Z,6.10
2019-06-01T08:40:54.840Z,5.70
2019-06-01T08:41:54.830Z,5.20
2019-06-01T08:42:54.820Z,5.50
2019-06-01T08:43:54.801Z,5.50
2019-06-01T08:44:54.816Z,5.60
2019-06-01T08:45:54.791Z,5.20
2019-06-01T08:46:54.788Z,6.70
2019-06-01T08:47:54.774Z,5.50
2019-06-01T08:48:54.759Z,6.90
2019-06-01T08:49:54.754Z,5.90
2019-06-01T08:50:54.743Z,5.30
2019-06-01T08:51:54.734Z,5.00
2019-06-01T08:52:54.733Z,5.50
2019-06-01T08:53:54.732Z,5.30
2019-06-01T08:54:54.714Z,5.40
2019-06-01T08:55:54.705Z,4.80
2019-06-01T08:56:54.702Z,5.00
2019-06-01T08:57:54.698Z,5.10
2019-06-01T08:58:54.689Z,5.50
2019-06-01T08:59:54.680Z,5.60
2019-06-01T09:00:54.670Z,5.30
2019-06-01T09:01:54.668Z,5.00
2019-06-01T09:02:54.661Z,5.60
2019-06-01T09:03:54.654Z,5.70
2019-06-01T09:04:54.651Z,5.10
2019-06-01T09:05:54.648Z,5.00
2019-06-01T09:06:54.639Z,4.50
2019-06-01T09:07:54.636Z,4.90
2019-06-01T09:08:54.637Z,5.10
2019-06-01T09:09:54.629Z,4.90
2019-06-01T09:10:54.652Z,4.40
2019-06-01T09:11:54.625Z,4.60
2019-06-01T09:12:54.619Z,4.70
2019-06-01T09:13:54.615Z,5.10
2019-06-01T09:14:54.607Z,4.50
2019-06-01T09:15:54.610Z,5.60
2019-06-01T09:16:54.606Z,4.60
2019-06-01T09:17:54.597Z,5.10
2019-06-01T09:18:54.610Z,4.90
2019-06-01T09:19:54.626Z,5.40
2019-06-01T09:20:54.588Z,5.00
2019-06-01T09:21:54.589Z,4.40
2019-06-01T09:22:54.581Z,3.90
2019-06-01T09:23:54.578Z,4.20
2019-06-01T09:24:54.585Z,4.40
2019-06-01T09:25:54.578Z,4.40
2019-06-01T09:26:54.571Z,4.40
2019-06-01T09:27:54.571Z,5.00
2019-06-01T09:28:54.567Z,4.60
2019-06-01T09:29:54.562Z,4.00
2019-06-01T09:30:54.556Z,3.90
2019-06-01T09:31:54.572Z,4.30
2019-06-01T09:32:54.549Z,5.50
2019-06-01T09:33:54.555Z,5.00
2019-06-01T09:34:54.558Z,4.90
2019-06-01T09:35:56.371Z,4.90
2019-06-01T09:36:55.591Z,5.30
2019-06-01T09:37:54.537Z,4.80
2019-06-01T09:38:54.530Z,4.40
2019-06-01T09:39:54.538Z,4.60
2019-06-01T09:40:54.525Z,4.20
2019-06-01T09:41:54.520Z,4.60
2019-06-01T09:42:54.521Z,4.80
2019-06-01T09:43:54.520Z,5.10
2019-06-01T09:44:54.511Z,5.20
2019-06-01T09:45:54.509Z,5.50
2019-06-01T09:46:54.501Z,5.20
2019-06-01T09:47:54.501Z,6.00
2019-06-01T09:48:54.494Z,6.10
2019-06-01T09:49:54.488Z,5.80
2019-06-01T09:50:54.483Z,5.50
2019-06-01T09:51:54.485Z,5.20
2019-06-01T09:52:54.476Z,5.20
2019-06-01T09:53:54.472Z,5.40
2019-06-01T09:54:54.459Z,5.50
2019-06-01T09:55:54.453Z,5.30
2019-06-01T09:56:54.446Z,5.40
2019-06-01T09:57:54.437Z,5.60
2019-06-01T09:58:54.434Z,5.10
2019-06-01T09:59:54.425Z,5.40
2019-06-01T10:00:54.419Z,4.60
2019-06-01T10:01:54.417Z,5.00
2019-06-01T10:02:54.413Z,5.30
2019-06-01T10:03:54.398Z,5.10
2019-06-01T10:04:54.390Z,5.60
2019-06-01T10:06:01.813Z,5.70
2019-06-01T10:06:54.379Z,5.30
2019-06-01T10:07:54.369Z,5.40
2019-06-01T10:08:54.360Z,5.10
2019-06-01T10:09:54.354Z,5.00
2019-06-01T10:10:54.344Z,5.60
2019-06-01T10:11:54.338Z,5.80
2019-06-01T10:12:54.338Z,5.70
2019-06-01T10:13:54.322Z,6.50
2019-06-01T10:14:54.320Z,6.00
2019-06-01T10:15:54.310Z,6.10
2019-06-01T10:16:54.299Z,5.60
2019-06-01T10:17:54.297Z,5.50
2019-06-01T10:18:54.325Z,5.60
2019-06-01T10:19:54.277Z,5.20
2019-06-01T10:20:54.270Z,4.90
2019-06-01T10:21:54.264Z,5.10
2019-06-01T10:22:54.258Z,4.90
2019-06-01T10:23:54.253Z,5.10
2019-06-01T10:24:54.234Z,4.90
2019-06-01T10:25:54.239Z,5.10
2019-06-01T10:26:54.220Z,5.00
2019-06-01T10:27:54.211Z,4.80
2019-06-01T10:28:54.215Z,5.20
2019-06-01T10:29:54.194Z,5.20
2019-06-01T10:30:54.187Z,5.40
2019-06-01T10:31:54.182Z,5.10
2019-06-01T10:32:54.172Z,5.10
2019-06-01T10:33:54.160Z,5.60
2019-06-01T10:34:54.153Z,6.00
2019-06-01T10:35:54.146Z,5.80
2019-06-01T10:36:54.142Z,5.50
2019-06-01T10:37:54.130Z,5.80
2019-06-01T10:38:54.122Z,5.20
2019-06-01T10:39:54.116Z,5.20
2019-06-01T10:40:54.111Z,6.60
2019-06-01T10:41:54.095Z,5.20
2019-06-01T10:42:54.085Z,4.70
2019-06-01T10:43:54.083Z,4.70
2019-06-01T10:44:54.071Z,5.20
2019-06-01T10:45:54.062Z,4.80
2019-06-01T10:46:54.071Z,5.40
2019-06-01T10:47:54.051Z,5.60
2019-06-01T10:48:54.044Z,5.10
2019-06-01T10:49:54.031Z,5.20
2019-06-01T10:50:54.023Z,4.70
2019-06-01T10:51:54.012Z,5.20
2019-06-01T10:52:54.009Z,5.90
2019-06-01T10:53:53.999Z,11.70
2019-06-01T10:54:53.989Z,5.30
2019-06-01T10:55:53.981Z,5.40
2019-06-01T10:56:53.970Z,4.90
2019-06-01T10:57:53.966Z,5.40
2019-06-01T10:59:00.019Z,5.30
2019-06-01T10:59:53.968Z,6.50
2019-06-01T11:00:53.942Z,8.40
2019-06-01T11:01:53.942Z,6.30
2019-06-01T11:02:53.929Z,5.50
2019-06-01T11:03:53.958Z,5.90
2019-06-01T11:04:53.908Z,5.70
2019-06-01T11:05:53.898Z,5.40
2019-06-01T11:06:53.894Z,5.70
2019-06-01T11:07:53.889Z,5.30
2019-06-01T11:08:53.872Z,5.20
2019-06-01T11:09:53.869Z,5.10
2019-06-01T11:10:53.893Z,5.10
2019-06-01T11:11:53.846Z,7.20
2019-06-01T11:12:53.840Z,4.80
2019-06-01T11:13:53.830Z,5.40
2019-06-01T11:14:53.820Z,5.70
2019-06-01T11:15:53.813Z,4.60
2019-06-01T11:16:56.635Z,4.80
2019-06-01T11:17:53.796Z,5.00
2019-06-01T11:18:53.800Z,4.50
2019-06-01T11:19:53.790Z,4.50
2019-06-01T11:20:53.773Z,4.80
2019-06-01T11:21:53.766Z,4.20
2019-06-01T11:22:53.759Z,4.30
2019-06-01T11:23:53.747Z,5.10
2019-06-01T11:24:53.754Z,5.30
2019-06-01T11:25:53.741Z,5.30
2019-06-01T11:26:53.727Z,4.70
2019-06-01T11:27:53.736Z,4.90
2019-06-01T11:28:53.712Z,4.50
2019-06-01T11:29:53.702Z,4.30
2019-06-01T11:30:53.702Z,4.50
2019-06-01T11:31:53.685Z,4.60
2019-06-01T11:32:53.676Z,4.40
2019-06-01T11:33:53.669Z,4.40
2019-06-01T11:34:53.662Z,4.70
2019-06-01T11:35:53.649Z,4.50
2019-06-01T11:37:05.114Z,4.70
2019-06-01T11:37:53.635Z,4.60
2019-06-01T11:38:53.639Z,4.90
2019-06-01T11:39:53.625Z,4.50
2019-06-01T11:40:53.616Z,4.80
2019-06-01T11:41:53.599Z,4.40
2019-06-01T11:42:53.597Z,4.40
2019-06-01T11:43:53.589Z,4.80
2019-06-01T11:44:53.597Z,4.50
2019-06-01T11:45:53.569Z,4.00
2019-06-01T11:46:53.607Z,4.80
2019-06-01T11:47:53.560Z,4.90
2019-06-01T11:48:53.548Z,4.40
2019-06-01T11:49:53.546Z,4.40
2019-06-01T11:50:53.524Z,4.10
2019-06-01T11:51:53.529Z,4.50
2019-06-01T11:52:53.519Z,4.20
2019-06-01T11:53:53.507Z,4.40
2019-06-01T11:54:53.496Z,4.10
2019-06-01T11:55:53.485Z,4.30
2019-06-01T11:56:53.479Z,4.30
2019-06-01T11:57:53.484Z,4.00
2019-06-01T11:58:53.461Z,4.40
2019-06-01T11:59:53.466Z,4.70
2019-06-01T12:00:53.457Z,4.40
2019-06-01T12:01:53.448Z,4.10
2019-06-01T12:02:53.438Z,4.60
2019-06-01T12:03:53.421Z,4.20
2019-06-01T12:04:53.415Z,4.60
2019-06-01T12:05:53.409Z,4.30
2019-06-01T12:06:53.410Z,4.10
2019-06-01T12:07:53.397Z,4.10
2019-06-01T12:08:53.384Z,4.20
2019-06-01T12:09:53.383Z,4.30
2019-06-01T12:10:53.375Z,4.50
2019-06-01T12:11:53.372Z,4.60
2019-06-01T12:12:53.386Z,4.80
2019-06-01T12:13:53.341Z,4.80
2019-06-01T12:14:53.333Z,4.60
2019-06-01T12:15:53.327Z,4.10
2019-06-01T12:16:53.318Z,3.30
2019-06-01T12:17:53.309Z,3.80
2019-06-01T12:18:53.303Z,3.50
2019-06-01T12:19:53.292Z,3.40
2019-06-01T12:20:53.284Z,3.40
2019-06-01T12:21:53.281Z,3.80
2019-06-01T12:22:53.272Z,3.60
2019-06-01T12:23:53.272Z,4.00
2019-06-01T12:24:53.258Z,4.00
2019-06-01T12:25:53.247Z,4.00
2019-06-01T12:26:53.242Z,3.50
2019-06-01T12:27:53.240Z,3.30
2019-06-01T12:28:53.229Z,3.50
2019-06-01T12:29:53.219Z,4.00
2019-06-01T12:30:53.207Z,3.70
2019-06-01T12:31:53.207Z,3.40
2019-06-01T12:32:53.191Z,3.80
2019-06-01T12:33:53.188Z,3.50
2019-06-01T12:34:53.177Z,4.20
2019-06-01T12:35:53.168Z,3.70
2019-06-01T12:36:53.163Z,3.80
2019-06-01T12:38:05.537Z,4.00
2019-06-01T12:38:53.152Z,3.80
2019-06-01T12:39:54.402Z,4.00
2019-06-01T12:40:53.131Z,3.20
2019-06-01T12:41:53.182Z,3.60
2019-06-01T12:42:53.146Z,3.60
2019-06-01T12:43:53.116Z,3.40
2019-06-01T12:44:53.115Z,3.70
2019-06-01T12:46:06.596Z,3.80
2019-06-01T12:46:53.108Z,3.70
2019-06-01T12:47:57.723Z,3.50
2019-06-01T12:48:53.071Z,3.90
2019-06-01T12:49:53.068Z,5.40
2019-06-01T12:50:53.058Z,4.00
2019-06-01T12:51:53.244Z,3.80
2019-06-01T12:52:53.055Z,5.20
2019-06-01T12:53:53.036Z,4.30
2019-06-01T12:54:53.206Z,4.50
2019-06-01T12:55:53.092Z,3.80
2019-06-01T12:56:53.118Z,4.60
2019-06-01T12:57:53.005Z,4.50
2019-06-01T12:58:53.004Z,3.70
2019-06-01T12:59:53.199Z,3.40
2019-06-01T13:00:52.986Z,4.00
2019-06-01T13:01:52.977Z,3.90
2019-06-01T13:03:03.801Z,4.00